sensor_id;sensor_type;location;lat;lon;timestamp;temperature;humidity
16758;DHT22;8497;51.346;12.396;2024-03-06T00:02:15;6.80;99.20
16758;DHT22;8497;51.346;12.396;2024-03-06T00:04:44;6.80;99.10
16758;DHT22;8497;51.346;12.396;2024-03-06T00:07:33;6.80;99.20
16758;DHT22;8497;51.346;12.396;2024-03-06T00:10:04;6.10;98.90
16758;DHT22;8497;51.346;12.396;2024-03-06T00:12:33;6.80;99.30
16758;DHT22;8497;51.346;12.396;2024-03-06T00:15:02;6.80;99.20
16758;DHT22;8497;51.346;12.396;2024-03-06T00:17:33;6.90;99.20
16758;DHT22;8497;51.346;12.396;2024-03-06T00:20:03;6.90;99.30
16758;DHT22;8497;51.346;12.396;2024-03-06T00:22:34;6.90;99.30
16758;DHT22;8497;51.346;12.396;2024-03-06T00:25:03;6.90;99.30
16758;DHT22;8497;51.346;12.396;2024-03-06T00:27:35;6.90;99.30
16758;DHT22;8497;51.346;12.396;2024-03-06T00:30:05;6.90;99.30
16758;DHT22;8497;51.346;12.396;2024-03-06T00:32:36;6.90;99.20
16758;DHT22;8497;51.346;12.396;2024-03-06T00:35:05;6.80;99.10
16758;DHT22;8497;51.346;12.396;2024-03-06T00:37:34;6.80;99.10
16758;DHT22;8497;51.346;12.396;2024-03-06T00:40:03;6.80;99.00
16758;DHT22;8497;51.346;12.396;2024-03-06T00:42:34;6.70;98.90
16758;DHT22;8497;51.346;12.396;2024-03-06T00:45:06;6.60;98.90
16758;DHT22;8497;51.346;12.396;2024-03-06T00:47:42;6.60;98.70
16758;DHT22;8497;51.346;12.396;2024-03-06T00:50:19;6.50;98.70
16758;DHT22;8497;51.346;12.396;2024-03-06T00:52:53;6.40;98.70
16758;DHT22;8497;51.346;12.396;2024-03-06T00:55:31;6.10;98.70
16758;DHT22;8497;51.346;12.396;2024-03-06T00:58:17;6.20;98.80
16758;DHT22;8497;51.346;12.396;2024-03-06T01:00:48;6.10;98.80
16758;DHT22;8497;51.346;12.396;2024-03-06T01:03:18;6.00;98.90
16758;DHT22;8497;51.346;12.396;2024-03-06T01:05:52;6.00;98.90
16758;DHT22;8497;51.346;12.396;2024-03-06T01:08:36;5.90;99.00
16758;DHT22;8497;51.346;12.396;2024-03-06T01:11:11;5.90;99.10
16758;DHT22;8497;51.346;12.396;2024-03-06T01:13:41;5.80;99.00
16758;DHT22;8497;51.346;12.396;2024-03-06T01:16:10;5.80;99.10
16758;DHT22;8497;51.346;12.396;2024-03-06T01:18:59;5.80;99.10
16758;DHT22;8497;51.346;12.396;2024-03-06T01:21:49;5.70;99.00
16758;DHT22;8497;51.346;12.396;2024-03-06T01:24:17;5.70;99.00
16758;DHT22;8497;51.346;12.396;2024-03-06T01:27:04;5.70;99.10
16758;DHT22;8497;51.346;12.396;2024-03-06T01:29:34;5.70;99.20
16758;DHT22;8497;51.346;12.396;2024-03-06T01:32:09;5.70;99.20
16758;DHT22;8497;51.346;12.396;2024-03-06T01:35:10;5.60;99.10
16758;DHT22;8497;51.346;12.396;2024-03-06T01:37:55;5.60;99.20
16758;DHT22;8497;51.346;12.396;2024-03-06T01:40:43;5.60;99.50
16758;DHT22;8497;51.346;12.396;2024-03-06T01:43:27;5.50;99.10
16758;DHT22;8497;51.346;12.396;2024-03-06T01:45:57;5.50;99.20
16758;DHT22;8497;51.346;12.396;2024-03-06T01:48:34;5.50;99.20
16758;DHT22;8497;51.346;12.396;2024-03-06T01:51:08;5.40;99.20
16758;DHT22;8497;51.346;12.396;2024-03-06T01:53:41;5.40;99.30
16758;DHT22;8497;51.346;12.396;2024-03-06T01:56:13;5.40;99.30
16758;DHT22;8497;51.346;12.396;2024-03-06T01:58:47;5.40;99.40
16758;DHT22;8497;51.346;12.396;2024-03-06T02:01:22;5.40;99.30
16758;DHT22;8497;51.346;12.396;2024-03-06T02:03:59;5.40;99.30
16758;DHT22;8497;51.346;12.396;2024-03-06T02:06:42;5.30;99.30
16758;DHT22;8497;51.346;12.396;2024-03-06T02:09:17;5.30;99.40
16758;DHT22;8497;51.346;12.396;2024-03-06T02:12:15;5.30;99.50
16758;DHT22;8497;51.346;12.396;2024-03-06T02:14:58;5.30;99.50
16758;DHT22;8497;51.346;12.396;2024-03-06T02:17:27;5.30;99.60
16758;DHT22;8497;51.346;12.396;2024-03-06T02:19:57;5.30;99.60
16758;DHT22;8497;51.346;12.396;2024-03-06T02:22:45;5.30;99.50
16758;DHT22;8497;51.346;12.396;2024-03-06T02:25:17;5.20;99.50
16758;DHT22;8497;51.346;12.396;2024-03-06T02:27:49;5.20;99.50
16758;DHT22;8497;51.346;12.396;2024-03-06T02:30:19;5.20;99.60
16758;DHT22;8497;51.346;12.396;2024-03-06T02:32:48;5.20;99.60
16758;DHT22;8497;51.346;12.396;2024-03-06T02:35:17;5.20;99.60
16758;DHT22;8497;51.346;12.396;2024-03-06T02:37:47;5.10;99.60
16758;DHT22;8497;51.346;12.396;2024-03-06T02:40:16;5.10;99.70
16758;DHT22;8497;51.346;12.396;2024-03-06T02:42:45;5.10;99.70
16758;DHT22;8497;51.346;12.396;2024-03-06T02:45:15;5.10;99.70
16758;DHT22;8497;51.346;12.396;2024-03-06T02:47:44;5.10;99.70
16758;DHT22;8497;51.346;12.396;2024-03-06T02:50:13;5.10;99.70
16758;DHT22;8497;51.346;12.396;2024-03-06T02:52:42;5.10;99.70
16758;DHT22;8497;51.346;12.396;2024-03-06T02:55:12;5.10;99.80
16758;DHT22;8497;51.346;12.396;2024-03-06T02:57:41;5.00;99.80
16758;DHT22;8497;51.346;12.396;2024-03-06T03:00:11;5.00;99.80
16758;DHT22;8497;51.346;12.396;2024-03-06T03:02:41;5.00;99.80
16758;DHT22;8497;51.346;12.396;2024-03-06T03:05:10;5.00;99.90
16758;DHT22;8497;51.346;12.396;2024-03-06T03:07:39;5.00;99.90
16758;DHT22;8497;51.346;12.396;2024-03-06T03:10:10;5.00;99.90
16758;DHT22;8497;51.346;12.396;2024-03-06T03:12:43;5.00;99.90
16758;DHT22;8497;51.346;12.396;2024-03-06T03:15:11;5.00;99.90
16758;DHT22;8497;51.346;12.396;2024-03-06T03:17:40;5.00;99.90
16758;DHT22;8497;51.346;12.396;2024-03-06T03:20:10;5.00;99.90
16758;DHT22;8497;51.346;12.396;2024-03-06T03:22:40;5.00;99.90
16758;DHT22;8497;51.346;12.396;2024-03-06T03:25:09;5.00;99.90
16758;DHT22;8497;51.346;12.396;2024-03-06T03:27:40;5.00;99.90
16758;DHT22;8497;51.346;12.396;2024-03-06T03:30:12;4.90;99.90
16758;DHT22;8497;51.346;12.396;2024-03-06T03:32:45;4.80;99.90
16758;DHT22;8497;51.346;12.396;2024-03-06T03:35:17;4.80;99.90
16758;DHT22;8497;51.346;12.396;2024-03-06T03:38:18;4.80;99.90
16758;DHT22;8497;51.346;12.396;2024-03-06T03:41:01;4.80;99.90
16758;DHT22;8497;51.346;12.396;2024-03-06T03:43:31;4.80;99.90
16758;DHT22;8497;51.346;12.396;2024-03-06T03:46:02;4.80;99.90
16758;DHT22;8497;51.346;12.396;2024-03-06T03:48:33;4.80;99.90
16758;DHT22;8497;51.346;12.396;2024-03-06T03:51:05;4.80;99.90
16758;DHT22;8497;51.346;12.396;2024-03-06T03:53:40;4.80;99.90
16758;DHT22;8497;51.346;12.396;2024-03-06T03:56:23;4.70;99.90
16758;DHT22;8497;51.346;12.396;2024-03-06T03:58:52;4.70;99.90
16758;DHT22;8497;51.346;12.396;2024-03-06T04:01:46;4.70;99.90
16758;DHT22;8497;51.346;12.396;2024-03-06T04:04:26;4.60;99.90
16758;DHT22;8497;51.346;12.396;2024-03-06T04:06:59;4.60;99.90
16758;DHT22;8497;51.346;12.396;2024-03-06T04:09:40;4.60;99.90
16758;DHT22;8497;51.346;12.396;2024-03-06T04:12:17;4.60;99.90
16758;DHT22;8497;51.346;12.396;2024-03-06T04:14:48;4.60;99.90
16758;DHT22;8497;51.346;12.396;2024-03-06T04:17:20;4.60;99.90
16758;DHT22;8497;51.346;12.396;2024-03-06T04:20:03;4.60;99.90
16758;DHT22;8497;51.346;12.396;2024-03-06T04:22:37;4.50;99.90
16758;DHT22;8497;51.346;12.396;2024-03-06T04:25:11;4.60;99.90
16758;DHT22;8497;51.346;12.396;2024-03-06T04:27:43;4.60;99.90
16758;DHT22;8497;51.346;12.396;2024-03-06T04:30:13;4.50;99.90
16758;DHT22;8497;51.346;12.396;2024-03-06T04:33:03;4.50;99.90
16758;DHT22;8497;51.346;12.396;2024-03-06T04:35:42;4.40;99.90
16758;DHT22;8497;51.346;12.396;2024-03-06T04:38:13;4.50;99.90
16758;DHT22;8497;51.346;12.396;2024-03-06T04:40:44;4.40;99.90
16758;DHT22;8497;51.346;12.396;2024-03-06T04:43:22;4.40;99.90
16758;DHT22;8497;51.346;12.396;2024-03-06T04:46:02;4.40;99.90
16758;DHT22;8497;51.346;12.396;2024-03-06T04:48:35;4.30;99.90
16758;DHT22;8497;51.346;12.396;2024-03-06T04:51:07;4.20;99.90
16758;DHT22;8497;51.346;12.396;2024-03-06T04:53:38;4.20;99.90
16758;DHT22;8497;51.346;12.396;2024-03-06T04:56:12;4.10;99.90
16758;DHT22;8497;51.346;12.396;2024-03-06T04:58:44;4.10;99.90
16758;DHT22;8497;51.346;12.396;2024-03-06T05:01:16;4.00;99.90
16758;DHT22;8497;51.346;12.396;2024-03-06T05:04:08;4.00;99.90
16758;DHT22;8497;51.346;12.396;2024-03-06T05:06:54;4.00;99.90
16758;DHT22;8497;51.346;12.396;2024-03-06T05:09:40;4.00;99.90
16758;DHT22;8497;51.346;12.396;2024-03-06T05:12:27;3.90;99.90
16758;DHT22;8497;51.346;12.396;2024-03-06T05:15:15;3.90;99.90
16758;DHT22;8497;51.346;12.396;2024-03-06T05:18:01;3.90;99.90
16758;DHT22;8497;51.346;12.396;2024-03-06T05:20:47;3.90;99.90
16758;DHT22;8497;51.346;12.396;2024-03-06T05:23:33;3.90;99.90
16758;DHT22;8497;51.346;12.396;2024-03-06T05:26:20;3.80;99.90
16758;DHT22;8497;51.346;12.396;2024-03-06T05:29:06;3.80;99.90
16758;DHT22;8497;51.346;12.396;2024-03-06T05:31:54;3.80;99.90
16758;DHT22;8497;51.346;12.396;2024-03-06T05:34:42;3.70;99.90
16758;DHT22;8497;51.346;12.396;2024-03-06T05:37:28;3.70;99.90
16758;DHT22;8497;51.346;12.396;2024-03-06T05:40:14;3.70;99.90
16758;DHT22;8497;51.346;12.396;2024-03-06T05:43:00;3.60;99.90
16758;DHT22;8497;51.346;12.396;2024-03-06T05:45:46;3.60;99.90
16758;DHT22;8497;51.346;12.396;2024-03-06T05:48:35;3.60;99.90
16758;DHT22;8497;51.346;12.396;2024-03-06T05:51:25;3.60;99.90
16758;DHT22;8497;51.346;12.396;2024-03-06T05:54:12;3.60;99.90
16758;DHT22;8497;51.346;12.396;2024-03-06T05:56:59;3.60;99.90
16758;DHT22;8497;51.346;12.396;2024-03-06T05:59:46;3.60;99.90
16758;DHT22;8497;51.346;12.396;2024-03-06T06:02:20;3.60;99.90
16758;DHT22;8497;51.346;12.396;2024-03-06T06:05:08;3.60;99.90
16758;DHT22;8497;51.346;12.396;2024-03-06T06:07:50;3.60;99.90
16758;DHT22;8497;51.346;12.396;2024-03-06T06:10:36;3.60;99.90
16758;DHT22;8497;51.346;12.396;2024-03-06T06:13:12;3.60;99.90
16758;DHT22;8497;51.346;12.396;2024-03-06T06:16:05;3.60;99.90
16758;DHT22;8497;51.346;12.396;2024-03-06T06:18:48;3.60;99.90
16758;DHT22;8497;51.346;12.396;2024-03-06T06:21:46;3.60;99.90
16758;DHT22;8497;51.346;12.396;2024-03-06T06:24:26;3.60;99.90
16758;DHT22;8497;51.346;12.396;2024-03-06T06:27:03;3.70;99.90
16758;DHT22;8497;51.346;12.396;2024-03-06T06:29:52;3.70;99.90
16758;DHT22;8497;51.346;12.396;2024-03-06T06:32:33;3.80;99.90
16758;DHT22;8497;51.346;12.396;2024-03-06T06:35:04;3.70;99.90
16758;DHT22;8497;51.346;12.396;2024-03-06T06:37:38;3.80;99.90
16758;DHT22;8497;51.346;12.396;2024-03-06T06:40:34;3.80;99.90
16758;DHT22;8497;51.346;12.396;2024-03-06T06:43:19;3.80;99.90
16758;DHT22;8497;51.346;12.396;2024-03-06T06:45:57;3.80;99.90
16758;DHT22;8497;51.346;12.396;2024-03-06T06:48:29;3.80;99.90
16758;DHT22;8497;51.346;12.396;2024-03-06T06:51:10;3.80;99.90
16758;DHT22;8497;51.346;12.396;2024-03-06T06:53:47;3.90;99.90
16758;DHT22;8497;51.346;12.396;2024-03-06T06:56:19;3.90;99.90
16758;DHT22;8497;51.346;12.396;2024-03-06T06:59:06;3.90;99.90
16758;DHT22;8497;51.346;12.396;2024-03-06T07:01:50;4.00;99.90
16758;DHT22;8497;51.346;12.396;2024-03-06T07:04:33;4.00;99.90
16758;DHT22;8497;51.346;12.396;2024-03-06T07:07:11;4.20;99.90
16758;DHT22;8497;51.346;12.396;2024-03-06T07:09:42;4.20;99.90
16758;DHT22;8497;51.346;12.396;2024-03-06T07:12:11;4.20;99.90
16758;DHT22;8497;51.346;12.396;2024-03-06T07:14:40;4.30;99.90
16758;DHT22;8497;51.346;12.396;2024-03-06T07:17:08;4.30;99.90
16758;DHT22;8497;51.346;12.396;2024-03-06T07:19:37;4.30;99.90
16758;DHT22;8497;51.346;12.396;2024-03-06T07:22:08;4.40;99.90
16758;DHT22;8497;51.346;12.396;2024-03-06T07:24:43;4.50;99.90
16758;DHT22;8497;51.346;12.396;2024-03-06T07:27:21;4.50;99.90
16758;DHT22;8497;51.346;12.396;2024-03-06T07:30:20;4.60;99.90
16758;DHT22;8497;51.346;12.396;2024-03-06T07:33:02;4.70;99.90
16758;DHT22;8497;51.346;12.396;2024-03-06T07:37:20;4.70;99.90
16758;DHT22;8497;51.346;12.396;2024-03-06T07:39:27;4.80;99.90
16758;DHT22;8497;51.346;12.396;2024-03-06T07:42:05;4.80;99.90
16758;DHT22;8497;51.346;12.396;2024-03-06T07:44:39;4.90;99.90
16758;DHT22;8497;51.346;12.396;2024-03-06T07:47:17;4.90;99.90
16758;DHT22;8497;51.346;12.396;2024-03-06T07:50:04;4.90;99.90
16758;DHT22;8497;51.346;12.396;2024-03-06T07:52:47;4.90;99.90
16758;DHT22;8497;51.346;12.396;2024-03-06T07:55:36;5.00;99.90
16758;DHT22;8497;51.346;12.396;2024-03-06T07:58:22;4.90;99.90
16758;DHT22;8497;51.346;12.396;2024-03-06T08:01:03;4.90;99.90
16758;DHT22;8497;51.346;12.396;2024-03-06T08:04:13;4.90;99.90
16758;DHT22;8497;51.346;12.396;2024-03-06T08:07:11;5.00;99.90
16758;DHT22;8497;51.346;12.396;2024-03-06T08:09:42;5.00;99.90
16758;DHT22;8497;51.346;12.396;2024-03-06T08:12:16;5.10;99.90
16758;DHT22;8497;51.346;12.396;2024-03-06T08:18:04;5.30;99.90
16758;DHT22;8497;51.346;12.396;2024-03-06T08:20:55;5.50;99.90
16758;DHT22;8497;51.346;12.396;2024-03-06T08:23:36;5.60;99.90
16758;DHT22;8497;51.346;12.396;2024-03-06T08:26:24;5.70;99.90
16758;DHT22;8497;51.346;12.396;2024-03-06T08:29:29;5.80;99.90
16758;DHT22;8497;51.346;12.396;2024-03-06T08:35:29;5.80;99.90
16758;DHT22;8497;51.346;12.396;2024-03-06T08:38:15;5.80;99.90
16758;DHT22;8497;51.346;12.396;2024-03-06T08:40:46;5.90;99.90
16758;DHT22;8497;51.346;12.396;2024-03-06T08:43:17;6.00;99.90
16758;DHT22;8497;51.346;12.396;2024-03-06T08:45:55;6.10;99.90
16758;DHT22;8497;51.346;12.396;2024-03-06T08:48:37;6.10;99.90
16758;DHT22;8497;51.346;12.396;2024-03-06T08:51:21;6.20;99.90
16758;DHT22;8497;51.346;12.396;2024-03-06T08:53:58;6.30;99.90
16758;DHT22;8497;51.346;12.396;2024-03-06T08:58:34;6.40;99.90
16758;DHT22;8497;51.346;12.396;2024-03-06T09:00:05;6.40;99.90
16758;DHT22;8497;51.346;12.396;2024-03-06T09:03:05;6.40;99.90
16758;DHT22;8497;51.346;12.396;2024-03-06T09:05:59;6.40;99.90
16758;DHT22;8497;51.346;12.396;2024-03-06T09:08:30;6.40;99.90
16758;DHT22;8497;51.346;12.396;2024-03-06T09:10:58;6.40;99.90
16758;DHT22;8497;51.346;12.396;2024-03-06T09:13:27;6.50;99.90
16758;DHT22;8497;51.346;12.396;2024-03-06T09:15:55;6.60;99.90
16758;DHT22;8497;51.346;12.396;2024-03-06T09:18:27;6.60;99.90
16758;DHT22;8497;51.346;12.396;2024-03-06T09:21:05;6.60;99.90
16758;DHT22;8497;51.346;12.396;2024-03-06T09:23:34;6.70;99.90
16758;DHT22;8497;51.346;12.396;2024-03-06T09:26:04;6.80;99.90
16758;DHT22;8497;51.346;12.396;2024-03-06T09:28:33;6.90;99.90
16758;DHT22;8497;51.346;12.396;2024-03-06T09:31:03;7.10;99.90
16758;DHT22;8497;51.346;12.396;2024-03-06T09:33:32;7.30;99.90
16758;DHT22;8497;51.346;12.396;2024-03-06T09:36:04;7.40;99.90
16758;DHT22;8497;51.346;12.396;2024-03-06T09:38:33;7.50;99.90
16758;DHT22;8497;51.346;12.396;2024-03-06T09:41:04;7.60;99.90
16758;DHT22;8497;51.346;12.396;2024-03-06T09:43:43;7.80;99.90
16758;DHT22;8497;51.346;12.396;2024-03-06T09:46:29;7.90;99.90
16758;DHT22;8497;51.346;12.396;2024-03-06T09:49:10;7.90;99.90
16758;DHT22;8497;51.346;12.396;2024-03-06T09:51:59;7.90;99.90
16758;DHT22;8497;51.346;12.396;2024-03-06T09:54:52;7.90;99.90
16758;DHT22;8497;51.346;12.396;2024-03-06T09:57:43;7.90;99.90
16758;DHT22;8497;51.346;12.396;2024-03-06T10:00:22;8.00;99.90
16758;DHT22;8497;51.346;12.396;2024-03-06T10:03:24;8.00;99.90
16758;DHT22;8497;51.346;12.396;2024-03-06T10:06:52;8.10;99.90
16758;DHT22;8497;51.346;12.396;2024-03-06T10:10:10;8.10;99.90
16758;DHT22;8497;51.346;12.396;2024-03-06T10:12:40;8.20;99.90
16758;DHT22;8497;51.346;12.396;2024-03-06T10:15:31;8.20;99.80
16758;DHT22;8497;51.346;12.396;2024-03-06T10:18:14;8.30;99.90
16758;DHT22;8497;51.346;12.396;2024-03-06T10:21:08;8.40;99.90
16758;DHT22;8497;51.346;12.396;2024-03-06T10:24:10;8.50;99.80
16758;DHT22;8497;51.346;12.396;2024-03-06T10:26:48;8.50;99.60
16758;DHT22;8497;51.346;12.396;2024-03-06T10:29:21;8.50;99.50
16758;DHT22;8497;51.346;12.396;2024-03-06T10:32:19;8.50;99.30
16758;DHT22;8497;51.346;12.396;2024-03-06T10:35:24;8.50;99.20
16758;DHT22;8497;51.346;12.396;2024-03-06T10:38:28;8.60;99.20
16758;DHT22;8497;51.346;12.396;2024-03-06T10:41:27;8.60;99.10
16758;DHT22;8497;51.346;12.396;2024-03-06T10:44:46;8.70;99.00
16758;DHT22;8497;51.346;12.396;2024-03-06T10:47:46;8.80;99.00
16758;DHT22;8497;51.346;12.396;2024-03-06T10:50:49;8.90;98.80
16758;DHT22;8497;51.346;12.396;2024-03-06T10:53:37;8.90;98.60
16758;DHT22;8497;51.346;12.396;2024-03-06T10:56:42;9.00;98.60
16758;DHT22;8497;51.346;12.396;2024-03-06T10:59:25;9.10;98.30
16758;DHT22;8497;51.346;12.396;2024-03-06T11:02:21;9.20;98.30
16758;DHT22;8497;51.346;12.396;2024-03-06T11:04:52;9.10;98.00
16758;DHT22;8497;51.346;12.396;2024-03-06T11:08:42;9.20;98.20
16758;DHT22;8497;51.346;12.396;2024-03-06T11:11:23;9.50;98.20
16758;DHT22;8497;51.346;12.396;2024-03-06T11:15:01;9.60;97.90
16758;DHT22;8497;51.346;12.396;2024-03-06T11:17:46;9.70;97.70
16758;DHT22;8497;51.346;12.396;2024-03-06T11:20:22;9.70;97.40
16758;DHT22;8497;51.346;12.396;2024-03-06T11:23:07;9.60;96.90
16758;DHT22;8497;51.346;12.396;2024-03-06T11:26:06;9.50;96.70
16758;DHT22;8497;51.346;12.396;2024-03-06T11:28:38;9.40;96.60
16758;DHT22;8497;51.346;12.396;2024-03-06T11:31:42;9.40;96.30
16758;DHT22;8497;51.346;12.396;2024-03-06T11:35:05;9.30;96.10
16758;DHT22;8497;51.346;12.396;2024-03-06T11:37:46;9.30;95.90
16758;DHT22;8497;51.346;12.396;2024-03-06T11:40:48;9.20;95.60
16758;DHT22;8497;51.346;12.396;2024-03-06T11:44:05;9.10;95.70
16758;DHT22;8497;51.346;12.396;2024-03-06T11:47:05;9.40;95.50
16758;DHT22;8497;51.346;12.396;2024-03-06T11:49:37;9.50;95.50
16758;DHT22;8497;51.346;12.396;2024-03-06T11:52:24;9.60;95.40
16758;DHT22;8497;51.346;12.396;2024-03-06T11:54:55;9.70;95.20
16758;DHT22;8497;51.346;12.396;2024-03-06T11:57:24;9.90;95.30
16758;DHT22;8497;51.346;12.396;2024-03-06T11:59:53;10.10;94.80
16758;DHT22;8497;51.346;12.396;2024-03-06T12:02:22;10.20;94.70
16758;DHT22;8497;51.346;12.396;2024-03-06T12:04:51;10.20;94.50
16758;DHT22;8497;51.346;12.396;2024-03-06T12:07:22;10.20;94.10
16758;DHT22;8497;51.346;12.396;2024-03-06T12:09:52;10.00;93.60
16758;DHT22;8497;51.346;12.396;2024-03-06T12:12:21;9.90;94.20
16758;DHT22;8497;51.346;12.396;2024-03-06T12:14:57;9.80;94.00
16758;DHT22;8497;51.346;12.396;2024-03-06T12:17:26;9.90;94.10
16758;DHT22;8497;51.346;12.396;2024-03-06T12:19:59;9.90;94.00
16758;DHT22;8497;51.346;12.396;2024-03-06T12:22:56;9.90;93.70
16758;DHT22;8497;51.346;12.396;2024-03-06T12:25:41;9.90;93.60
16758;DHT22;8497;51.346;12.396;2024-03-06T12:28:57;10.00;93.10
16758;DHT22;8497;51.346;12.396;2024-03-06T12:31:42;10.10;93.00
16758;DHT22;8497;51.346;12.396;2024-03-06T12:34:14;10.20;92.90
16758;DHT22;8497;51.346;12.396;2024-03-06T12:36:44;10.30;92.80
16758;DHT22;8497;51.346;12.396;2024-03-06T12:39:16;10.40;92.60
16758;DHT22;8497;51.346;12.396;2024-03-06T12:41:50;10.40;92.60
16758;DHT22;8497;51.346;12.396;2024-03-06T12:44:19;10.60;92.60
16758;DHT22;8497;51.346;12.396;2024-03-06T12:46:48;10.70;92.50
16758;DHT22;8497;51.346;12.396;2024-03-06T12:49:25;10.60;92.20
16758;DHT22;8497;51.346;12.396;2024-03-06T12:51:56;10.40;91.50
16758;DHT22;8497;51.346;12.396;2024-03-06T12:54:55;10.10;91.30
16758;DHT22;8497;51.346;12.396;2024-03-06T12:57:24;10.00;91.60
16758;DHT22;8497;51.346;12.396;2024-03-06T13:00:01;10.10;91.50
16758;DHT22;8497;51.346;12.396;2024-03-06T13:03:03;10.20;91.50
16758;DHT22;8497;51.346;12.396;2024-03-06T13:06:05;10.50;91.80
16758;DHT22;8497;51.346;12.396;2024-03-06T13:08:34;10.60;91.80
16758;DHT22;8497;51.346;12.396;2024-03-06T13:11:04;10.70;91.60
16758;DHT22;8497;51.346;12.396;2024-03-06T13:13:33;10.50;91.00
16758;DHT22;8497;51.346;12.396;2024-03-06T13:16:02;10.20;90.60
16758;DHT22;8497;51.346;12.396;2024-03-06T13:18:34;10.00;90.70
16758;DHT22;8497;51.346;12.396;2024-03-06T13:21:05;9.90;91.30
16758;DHT22;8497;51.346;12.396;2024-03-06T13:23:38;9.90;91.30
16758;DHT22;8497;51.346;12.396;2024-03-06T13:26:12;10.00;90.90
16758;DHT22;8497;51.346;12.396;2024-03-06T13:28:41;10.00;90.70
16758;DHT22;8497;51.346;12.396;2024-03-06T13:31:17;10.00;90.30
16758;DHT22;8497;51.346;12.396;2024-03-06T13:34:00;9.90;90.90
16758;DHT22;8497;51.346;12.396;2024-03-06T13:36:33;9.90;90.70
16758;DHT22;8497;51.346;12.396;2024-03-06T13:39:05;9.90;90.60
16758;DHT22;8497;51.346;12.396;2024-03-06T13:41:43;10.00;90.30
16758;DHT22;8497;51.346;12.396;2024-03-06T13:44:58;10.10;90.10
16758;DHT22;8497;51.346;12.396;2024-03-06T13:48:13;10.00;89.90
16758;DHT22;8497;51.346;12.396;2024-03-06T13:51:21;9.90;90.30
16758;DHT22;8497;51.346;12.396;2024-03-06T13:54:08;9.90;90.20
16758;DHT22;8497;51.346;12.396;2024-03-06T13:56:59;9.90;90.10
16758;DHT22;8497;51.346;12.396;2024-03-06T13:59:35;9.90;90.00
16758;DHT22;8497;51.346;12.396;2024-03-06T14:02:08;10.00;88.30
16758;DHT22;8497;51.346;12.396;2024-03-06T14:04:39;9.90;88.80
16758;DHT22;8497;51.346;12.396;2024-03-06T14:07:08;10.00;87.50
16758;DHT22;8497;51.346;12.396;2024-03-06T14:09:55;10.10;87.70
16758;DHT22;8497;51.346;12.396;2024-03-06T14:12:30;10.10;86.80
16758;DHT22;8497;51.346;12.396;2024-03-06T14:15:18;10.10;86.30
16758;DHT22;8497;51.346;12.396;2024-03-06T14:18:02;10.20;85.80
16758;DHT22;8497;51.346;12.396;2024-03-06T14:20:49;10.20;85.30
16758;DHT22;8497;51.346;12.396;2024-03-06T14:23:21;10.20;85.20
16758;DHT22;8497;51.346;12.396;2024-03-06T14:26:06;10.20;85.00
16758;DHT22;8497;51.346;12.396;2024-03-06T14:28:38;10.20;84.50
16758;DHT22;8497;51.346;12.396;2024-03-06T14:31:08;10.10;84.20
16758;DHT22;8497;51.346;12.396;2024-03-06T14:33:40;10.10;84.70
16758;DHT22;8497;51.346;12.396;2024-03-06T14:36:09;10.10;84.00
16758;DHT22;8497;51.346;12.396;2024-03-06T14:38:40;10.20;84.20
16758;DHT22;8497;51.346;12.396;2024-03-06T14:41:10;10.20;84.20
16758;DHT22;8497;51.346;12.396;2024-03-06T14:43:45;10.30;83.80
16758;DHT22;8497;51.346;12.396;2024-03-06T14:46:18;10.20;83.30
16758;DHT22;8497;51.346;12.396;2024-03-06T14:48:47;10.20;83.20
16758;DHT22;8497;51.346;12.396;2024-03-06T14:51:15;10.10;82.90
16758;DHT22;8497;51.346;12.396;2024-03-06T14:53:44;10.10;83.00
16758;DHT22;8497;51.346;12.396;2024-03-06T14:56:13;10.10;83.30
16758;DHT22;8497;51.346;12.396;2024-03-06T14:58:43;10.10;83.40
16758;DHT22;8497;51.346;12.396;2024-03-06T15:01:12;10.00;83.50
16758;DHT22;8497;51.346;12.396;2024-03-06T15:03:41;9.90;84.60
16758;DHT22;8497;51.346;12.396;2024-03-06T15:06:12;9.80;84.80
16758;DHT22;8497;51.346;12.396;2024-03-06T15:08:45;9.70;84.90
16758;DHT22;8497;51.346;12.396;2024-03-06T15:11:19;9.60;85.00
16758;DHT22;8497;51.346;12.396;2024-03-06T15:13:52;9.50;85.50
16758;DHT22;8497;51.346;12.396;2024-03-06T15:16:24;9.60;85.90
16758;DHT22;8497;51.346;12.396;2024-03-06T15:18:53;9.60;86.00
16758;DHT22;8497;51.346;12.396;2024-03-06T15:21:27;9.70;86.20
16758;DHT22;8497;51.346;12.396;2024-03-06T15:24:17;9.70;86.00
16758;DHT22;8497;51.346;12.396;2024-03-06T15:27:15;9.80;85.80
16758;DHT22;8497;51.346;12.396;2024-03-06T15:30:08;9.80;86.20
16758;DHT22;8497;51.346;12.396;2024-03-06T15:32:51;9.90;86.00
16758;DHT22;8497;51.346;12.396;2024-03-06T15:35:37;9.90;85.80
16758;DHT22;8497;51.346;12.396;2024-03-06T15:38:40;9.80;85.30
16758;DHT22;8497;51.346;12.396;2024-03-06T15:41:25;9.70;85.00
16758;DHT22;8497;51.346;12.396;2024-03-06T15:43:53;9.60;84.80
16758;DHT22;8497;51.346;12.396;2024-03-06T15:46:26;9.60;84.60
16758;DHT22;8497;51.346;12.396;2024-03-06T15:48:55;9.50;84.20
16758;DHT22;8497;51.346;12.396;2024-03-06T15:51:23;9.50;84.30
16758;DHT22;8497;51.346;12.396;2024-03-06T15:53:52;9.40;84.10
16758;DHT22;8497;51.346;12.396;2024-03-06T15:56:23;9.30;84.10
16758;DHT22;8497;51.346;12.396;2024-03-06T15:58:52;9.30;84.40
16758;DHT22;8497;51.346;12.396;2024-03-06T16:01:37;9.30;84.80
16758;DHT22;8497;51.346;12.396;2024-03-06T16:04:23;9.30;84.90
16758;DHT22;8497;51.346;12.396;2024-03-06T16:06:54;9.30;84.90
16758;DHT22;8497;51.346;12.396;2024-03-06T16:09:39;9.20;84.90
16758;DHT22;8497;51.346;12.396;2024-03-06T16:12:10;9.20;84.90
16758;DHT22;8497;51.346;12.396;2024-03-06T16:14:38;9.10;84.60
16758;DHT22;8497;51.346;12.396;2024-03-06T16:17:16;9.10;84.50
16758;DHT22;8497;51.346;12.396;2024-03-06T16:19:50;9.00;84.80
16758;DHT22;8497;51.346;12.396;2024-03-06T16:22:32;9.00;85.00
16758;DHT22;8497;51.346;12.396;2024-03-06T16:25:00;8.90;84.90
16758;DHT22;8497;51.346;12.396;2024-03-06T16:27:29;8.90;85.10
16758;DHT22;8497;51.346;12.396;2024-03-06T16:29:58;8.90;85.10
16758;DHT22;8497;51.346;12.396;2024-03-06T16:32:30;8.80;85.20
16758;DHT22;8497;51.346;12.396;2024-03-06T16:35:01;8.80;85.40
16758;DHT22;8497;51.346;12.396;2024-03-06T16:37:32;8.80;85.50
16758;DHT22;8497;51.346;12.396;2024-03-06T16:40:10;8.80;85.70
16758;DHT22;8497;51.346;12.396;2024-03-06T16:42:39;8.70;85.70
16758;DHT22;8497;51.346;12.396;2024-03-06T16:45:08;8.70;86.00
16758;DHT22;8497;51.346;12.396;2024-03-06T16:47:41;8.60;86.00
16758;DHT22;8497;51.346;12.396;2024-03-06T16:50:11;8.60;86.20
16758;DHT22;8497;51.346;12.396;2024-03-06T16:52:49;8.50;86.30
16758;DHT22;8497;51.346;12.396;2024-03-06T16:55:29;8.40;86.40
16758;DHT22;8497;51.346;12.396;2024-03-06T16:57:58;8.30;86.50
16758;DHT22;8497;51.346;12.396;2024-03-06T17:00:27;8.20;86.70
16758;DHT22;8497;51.346;12.396;2024-03-06T17:02:57;8.20;86.90
16758;DHT22;8497;51.346;12.396;2024-03-06T17:05:26;8.10;86.80
16758;DHT22;8497;51.346;12.396;2024-03-06T17:07:56;8.10;87.20
16758;DHT22;8497;51.346;12.396;2024-03-06T17:10:25;8.10;87.50